Time;durP1;ratioP1;P1;durP2;ratioP2;P2;SDS_P1;SDS_P2;PMS_P1;PMS_P2;Temp;Humidity;BMP_temperature;BMP_pressure;BME280_temperature;BME280_humidity;BME280_pressure;Samples;Min_cycle;Max_cycle;Signal;HPM_P1;HPM_P2
2024/02/28 00:01:19;;;;;;;;;;;15.80;64.40;;;;;;5051704;28;19908;-72
2024/02/28 00:03:45;;;;;;;;;;;15.90;64.80;;;;;;5052160;28;19917;-71
2024/02/28 00:06:10;;;;;;;;;;;15.90;64.90;;;;;;5052367;28;19980;-71
2024/02/28 00:08:36;;;;;;;;;;;15.70;64.70;;;;;;5052218;28;19966;-71
2024/02/28 00:11:02;;;;;;;;;;;15.80;65.00;;;;;;5052286;28;19920;-71
2024/02/28 00:13:27;;;;;;;;;;;15.90;64.80;;;;;;5052713;28;19913;-71
2024/02/28 00:15:52;;;;;;;;;;;15.80;65.00;;;;;;5052296;28;19912;-71
2024/02/28 00:18:19;;;;;;;;;;;16.20;65.20;;;;;;5052233;28;19916;-71
2024/02/28 00:20:44;;;;;;;;;;;15.90;64.90;;;;;;5052502;28;19952;-71
2024/02/28 00:23:10;;;;;;;;;;;15.90;65.30;;;;;;5052061;28;20383;-71
2024/02/28 00:25:35;;;;;;;;;;;15.80;65.00;;;;;;5052366;28;19908;-71
2024/02/28 00:28:01;;;;;;;;;;;16.10;65.10;;;;;;5052156;28;19909;-71
2024/02/28 00:30:28;;;;;;;;;;;15.90;64.70;;;;;;5052143;28;20320;-71
2024/02/28 00:32:54;;;;;;;;;;;15.60;64.70;;;;;;5052085;28;19913;-71
2024/02/28 00:35:19;;;;;;;;;;;15.90;65.10;;;;;;5052070;28;20290;-71
2024/02/28 00:37:45;;;;;;;;;;;15.80;65.10;;;;;;5051996;28;20433;-71
2024/02/28 00:40:10;;;;;;;;;;;15.90;65.00;;;;;;5052063;28;19916;-71
2024/02/28 00:42:36;;;;;;;;;;;15.90;63.30;;;;;;5052481;28;19917;-71
2024/02/28 00:45:02;;;;;;;;;;;15.80;65.10;;;;;;5052048;28;20375;-71
2024/02/28 00:47:28;;;;;;;;;;;15.80;64.60;;;;;;5051961;28;19920;-71
2024/02/28 00:49:53;;;;;;;;;;;15.90;65.00;;;;;;5051977;28;19909;-71
2024/02/28 00:52:19;;;;;;;;;;;15.90;65.10;;;;;;5051953;28;19912;-71
2024/02/28 00:54:44;;;;;;;;;;;15.90;65.00;;;;;;5052009;28;19909;-71
2024/02/28 00:57:10;;;;;;;;;;;15.80;64.40;;;;;;5051751;28;19916;-71
2024/02/28 00:59:35;;;;;;;;;;;15.80;65.00;;;;;;5051869;28;19909;-72
2024/02/28 01:02:01;;;;;;;;;;;15.90;64.50;;;;;;5051698;28;19948;-71
2024/02/28 01:04:26;;;;;;;;;;;15.90;64.90;;;;;;5052035;28;20512;-71
2024/02/28 01:06:52;;;;;;;;;;;15.90;65.20;;;;;;5051677;28;19909;-71
2024/02/28 01:09:17;;;;;;;;;;;15.90;64.90;;;;;;5052340;28;19952;-72
2024/02/28 01:11:43;;;;;;;;;;;15.80;65.40;;;;;;5051928;28;19913;-71
2024/02/28 01:14:09;;;;;;;;;;;15.80;65.10;;;;;;5054466;28;19995;-71
2024/02/28 01:16:34;;;;;;;;;;;15.60;64.70;;;;;;5055450;28;20345;-71
2024/02/28 01:19:00;;;;;;;;;;;15.90;64.80;;;;;;5055395;28;20001;-71
2024/02/28 01:21:25;;;;;;;;;;;15.80;65.10;;;;;;5055409;28;19954;-71
2024/02/28 01:23:51;;;;;;;;;;;15.90;64.80;;;;;;5055308;28;20374;-71
2024/02/28 01:26:17;;;;;;;;;;;15.80;64.50;;;;;;5055284;28;19916;-71
2024/02/28 01:28:45;;;;;;;;;;;15.80;64.70;;;;;;5037453;28;20460;-71
2024/02/28 01:31:11;;;;;;;;;;;15.90;60.90;;;;;;5055151;28;19909;-71
2024/02/28 01:33:36;;;;;;;;;;;17.80;65.80;;;;;;5055136;28;19979;-71
2024/02/28 01:36:02;;;;;;;;;;;15.90;64.60;;;;;;5055022;28;19932;-71
2024/02/28 01:38:27;;;;;;;;;;;15.90;64.10;;;;;;5055038;28;19909;-71
2024/02/28 01:40:53;;;;;;;;;;;15.90;64.50;;;;;;5055331;28;19913;-71
2024/02/28 01:43:18;;;;;;;;;;;15.90;64.70;;;;;;5054782;28;20414;-71
2024/02/28 01:45:44;;;;;;;;;;;15.90;64.60;;;;;;5054900;28;19955;-71
2024/02/28 01:48:10;;;;;;;;;;;15.90;64.60;;;;;;5054878;28;19913;-71
2024/02/28 01:50:37;;;;;;;;;;;15.80;64.70;;;;;;5055074;28;19963;-71
2024/02/28 01:53:02;;;;;;;;;;;15.80;64.70;;;;;;5054765;28;19909;-71
2024/02/28 01:55:28;;;;;;;;;;;15.80;64.50;;;;;;5054669;28;19962;-71
2024/02/28 01:57:53;;;;;;;;;;;15.80;64.50;;;;;;5055162;28;19963;-71
2024/02/28 02:00:20;;;;;;;;;;;15.80;64.40;;;;;;5054688;28;19986;-71
2024/02/28 02:02:46;;;;;;;;;;;15.80;64.00;;;;;;5054431;28;20389;-71
2024/02/28 02:05:12;;;;;;;;;;;15.80;64.50;;;;;;5054529;28;19913;-71
2024/02/28 02:07:39;;;;;;;;;;;15.80;64.30;;;;;;5054417;28;19920;-71
2024/02/28 02:10:08;;;;;;;;;;;15.80;64.50;;;;;;5054619;28;20010;-71
2024/02/28 02:12:33;;;;;;;;;;;15.80;63.70;;;;;;5054324;28;19913;-71
2024/02/28 02:14:59;;;;;;;;;;;15.80;64.30;;;;;;5054376;28;19909;-71
2024/02/28 02:17:24;;;;;;;;;;;15.70;64.40;;;;;;5054346;28;19909;-71
2024/02/28 02:19:50;;;;;;;;;;;15.80;64.40;;;;;;5054226;28;19955;-71
2024/02/28 02:22:16;;;;;;;;;;;15.70;64.10;;;;;;5054107;28;20300;-71
2024/02/28 02:24:42;;;;;;;;;;;15.80;63.90;;;;;;5053642;28;19909;-71
2024/02/28 02:27:07;;;;;;;;;;;15.70;64.80;;;;;;5054139;28;19916;-71
2024/02/28 02:29:33;;;;;;;;;;;15.70;64.30;;;;;;5054052;28;19920;-71
2024/02/28 02:31:59;;;;;;;;;;;16.00;64.50;;;;;;5054210;28;19916;-71
2024/02/28 02:34:24;;;;;;;;;;;15.70;63.30;;;;;;5053973;28;19916;-71
2024/02/28 02:36:50;;;;;;;;;;;15.70;64.30;;;;;;5054135;28;19909;-71
2024/02/28 02:39:15;;;;;;;;;;;15.70;64.20;;;;;;5053942;28;20387;-71
2024/02/28 02:41:41;;;;;;;;;;;15.70;63.60;;;;;;5053804;28;19909;-71
2024/02/28 02:44:07;;;;;;;;;;;15.70;64.10;;;;;;5053734;28;20363;-71
2024/02/28 02:46:32;;;;;;;;;;;15.70;64.40;;;;;;5053745;28;19924;-71
2024/02/28 02:48:58;;;;;;;;;;;15.60;64.10;;;;;;5053728;28;19908;-71
2024/02/28 02:51:24;;;;;;;;;;;15.60;64.00;;;;;;5053651;28;19909;-71
2024/02/28 02:53:49;;;;;;;;;;;15.70;63.90;;;;;;5036252;28;19909;-71
2024/02/28 02:56:15;;;;;;;;;;;15.70;64.20;;;;;;5053602;28;19909;-71
2024/02/28 02:58:40;;;;;;;;;;;15.80;64.10;;;;;;5053441;28;19955;-71
2024/02/28 03:01:05;;;;;;;;;;;15.60;65.00;;;;;;5053470;28;19920;-71
2024/02/28 03:03:31;;;;;;;;;;;15.60;63.70;;;;;;5053230;28;19924;-71
2024/02/28 03:05:56;;;;;;;;;;;15.60;64.20;;;;;;5053463;28;20000;-71
2024/02/28 03:08:22;;;;;;;;;;;15.60;64.40;;;;;;5053135;28;19921;-71
2024/02/28 03:10:47;;;;;;;;;;;15.60;64.10;;;;;;5053214;28;20335;-71
2024/02/28 03:13:13;;;;;;;;;;;15.60;64.10;;;;;;5053260;28;19913;-71
2024/02/28 03:15:39;;;;;;;;;;;15.60;64.00;;;;;;5053187;28;19916;-71
2024/02/28 03:18:04;;;;;;;;;;;15.60;64.40;;;;;;5053124;28;19940;-71
2024/02/28 03:20:30;;;;;;;;;;;15.50;63.50;;;;;;5053128;28;20019;-71
2024/02/28 03:22:55;;;;;;;;;;;15.50;63.60;;;;;;5053470;28;20015;-71
2024/02/28 03:25:20;;;;;;;;;;;15.60;64.30;;;;;;5053096;28;20417;-71
2024/02/28 03:27:46;;;;;;;;;;;15.50;64.30;;;;;;5052975;28;20011;-71
2024/02/28 03:30:11;;;;;;;;;;;15.50;64.10;;;;;;5053294;28;19909;-71
2024/02/28 03:32:37;;;;;;;;;;;15.60;64.10;;;;;;5052837;28;19916;-71
2024/02/28 03:35:04;;;;;;;;;;;15.50;63.20;;;;;;5052877;28;20364;-71
2024/02/28 03:37:29;;;;;;;;;;;15.40;63.40;;;;;;5052812;28;20325;-71
2024/02/28 03:39:55;;;;;;;;;;;15.60;64.60;;;;;;5052755;28;19909;-71
2024/02/28 03:42:21;;;;;;;;;;;15.50;64.50;;;;;;5034716;28;19956;-71
2024/02/28 03:44:46;;;;;;;;;;;15.50;64.50;;;;;;5052684;28;19915;-71
2024/02/28 03:47:12;;;;;;;;;;;15.50;64.60;;;;;;5052643;28;20287;-71
2024/02/28 03:49:37;;;;;;;;;;;15.50;64.50;;;;;;5052613;28;19915;-71
2024/02/28 03:52:05;;;;;;;;;;;15.50;64.80;;;;;;5053058;28;19919;-71
2024/02/28 03:54:31;;;;;;;;;;;15.30;64.10;;;;;;5034527;28;20409;-71
2024/02/28 03:56:57;;;;;;;;;;;15.50;64.80;;;;;;5052407;28;19913;-71
2024/02/28 03:59:22;;;;;;;;;;;15.40;64.50;;;;;;5052495;28;19913;-71
2024/02/28 04:01:48;;;;;;;;;;;15.50;64.40;;;;;;5052336;28;19909;-71
2024/02/28 04:04:13;;;;;;;;;;;15.50;64.80;;;;;;5052360;28;19924;-71
2024/02/28 04:06:38;;;;;;;;;;;15.50;64.60;;;;;;5052642;28;19909;-71
2024/02/28 04:09:04;;;;;;;;;;;15.40;64.70;;;;;;5052275;28;19920;-71
2024/02/28 04:11:29;;;;;;;;;;;15.40;64.70;;;;;;5052348;28;19908;-71
2024/02/28 04:13:55;;;;;;;;;;;15.40;64.60;;;;;;5052295;28;19916;-71
2024/02/28 04:16:20;;;;;;;;;;;15.40;64.60;;;;;;5052293;28;19909;-71
2024/02/28 04:18:46;;;;;;;;;;;15.50;64.40;;;;;;5052759;28;19909;-71
2024/02/28 04:21:11;;;;;;;;;;;15.40;64.90;;;;;;5052204;28;19916;-71
2024/02/28 04:23:38;;;;;;;;;;;15.50;64.80;;;;;;5052414;28;19984;-71
2024/02/28 04:26:03;;;;;;;;;;;15.40;64.50;;;;;;5052151;28;20367;-71
2024/02/28 04:28:29;;;;;;;;;;;15.50;64.80;;;;;;5052217;28;19948;-71
2024/02/28 04:30:55;;;;;;;;;;;15.50;65.00;;;;;;5052250;28;19915;-71
2024/02/28 04:33:20;;;;;;;;;;;15.40;65.00;;;;;;5052321;28;20007;-71
2024/02/28 04:35:46;;;;;;;;;;;15.50;64.90;;;;;;5052061;28;19970;-71
2024/02/28 04:38:11;;;;;;;;;;;15.50;64.80;;;;;;5052061;28;19962;-71
2024/02/28 04:40:37;;;;;;;;;;;15.40;64.80;;;;;;5052107;28;19909;-72
2024/02/28 04:43:02;;;;;;;;;;;15.40;64.90;;;;;;5051884;28;20458;-71
2024/02/28 04:45:28;;;;;;;;;;;15.50;64.40;;;;;;5052071;28;19916;-71
2024/02/28 04:47:55;;;;;;;;;;;15.40;64.90;;;;;;5053222;28;19909;-71
2024/02/28 04:50:20;;;;;;;;;;;15.40;64.70;;;;;;5055968;28;19908;-71
2024/02/28 04:52:46;;;;;;;;;;;15.40;64.90;;;;;;5055915;28;20286;-71
2024/02/28 04:55:12;;;;;;;;;;;15.50;64.80;;;;;;5055898;28;19908;-71
2024/02/28 04:57:37;;;;;;;;;;;15.40;64.50;;;;;;5055853;28;19913;-71
2024/02/28 05:00:03;;;;;;;;;;;15.50;65.00;;;;;;5056164;28;19912;-71
2024/02/28 05:02:29;;;;;;;;;;;15.50;64.40;;;;;;5055778;28;20479;-71
2024/02/28 05:04:54;;;;;;;;;;;15.90;64.90;;;;;;5055737;28;19913;-71
2024/02/28 05:07:20;;;;;;;;;;;15.40;64.80;;;;;;5055629;28;19921;-71
2024/02/28 05:09:45;;;;;;;;;;;15.50;64.70;;;;;;5055666;28;20386;-71
2024/02/28 05:12:13;;;;;;;;;;;15.40;64.60;;;;;;5055441;28;20367;-71
2024/02/28 05:14:39;;;;;;;;;;;15.40;60.90;;;;;;5055565;28;19909;-71
2024/02/28 05:17:04;;;;;;;;;;;15.50;64.70;;;;;;5055864;28;19908;-71
2024/02/28 05:19:31;;;;;;;;;;;15.50;64.40;;;;;;5055350;28;19909;-71
2024/02/28 05:21:56;;;;;;;;;;;15.50;64.80;;;;;;5055296;28;19908;-71
2024/02/28 05:24:22;;;;;;;;;;;15.50;64.80;;;;;;5055184;28;19923;-71
2024/02/28 05:26:47;;;;;;;;;;;15.40;64.60;;;;;;5055247;28;20338;-71
2024/02/28 05:29:12;;;;;;;;;;;15.50;64.70;;;;;;5055312;28;19913;-71
2024/02/28 05:31:38;;;;;;;;;;;15.40;64.80;;;;;;5055165;28;19923;-71
2024/02/28 05:34:04;;;;;;;;;;;15.70;64.80;;;;;;5055289;28;19955;-71
2024/02/28 05:36:30;;;;;;;;;;;15.40;64.50;;;;;;5055132;28;19912;-71
2024/02/28 05:38:56;;;;;;;;;;;15.50;65.00;;;;;;5055103;28;19997;-71
2024/02/28 05:41:22;;;;;;;;;;;15.40;64.80;;;;;;5055020;28;20046;-71
2024/02/28 05:43:48;;;;;;;;;;;15.50;64.60;;;;;;5055467;28;20039;-71
2024/02/28 05:46:14;;;;;;;;;;;15.40;64.60;;;;;;5055003;28;19917;-71
2024/02/28 05:48:43;;;;;;;;;;;15.50;64.90;;;;;;5054847;28;19909;-71
2024/02/28 05:51:08;;;;;;;;;;;15.50;60.10;;;;;;5054801;28;19971;-71
2024/02/28 05:53:38;;;;;;;;;;;15.50;64.70;;;;;;5054744;28;20366;-71
2024/02/28 05:56:13;;;;;;;;;;;15.40;61.00;;;;;;5054982;28;19982;-71
2024/02/28 05:58:39;;;;;;;;;;;15.50;60.10;;;;;;5054642;28;19954;-71
2024/02/28 06:01:05;;;;;;;;;;;15.60;65.30;;;;;;5054693;28;20003;-71
2024/02/28 06:03:30;;;;;;;;;;;15.50;64.50;;;;;;5054418;28;19916;-71
2024/02/28 06:05:57;;;;;;;;;;;15.40;64.80;;;;;;5054525;28;19916;-71
2024/02/28 06:08:23;;;;;;;;;;;15.40;64.70;;;;;;5054283;28;19999;-71
2024/02/28 06:10:52;;;;;;;;;;;15.40;61.80;;;;;;5053999;28;20143;-71
2024/02/28 06:13:18;;;;;;;;;;;15.40;64.80;;;;;;5056094;28;20433;-72
2024/02/28 06:15:43;;;;;;;;;;;15.50;64.80;;;;;;5056520;28;19913;-72
2024/02/28 06:18:09;;;;;;;;;;;15.40;65.00;;;;;;5054347;28;20356;-72
2024/02/28 06:20:34;;;;;;;;;;;15.40;64.90;;;;;;5054320;28;19962;-71
2024/02/28 06:23:00;;;;;;;;;;;16.00;65.40;;;;;;5054293;28;20290;-70
2024/02/28 06:25:27;;;;;;;;;;;15.40;64.80;;;;;;5054164;28;19912;-71
2024/02/28 06:27:53;;;;;;;;;;;15.40;65.00;;;;;;5054198;28;20036;-72
2024/02/28 06:30:18;;;;;;;;;;;15.60;65.20;;;;;;5054103;28;20414;-72
2024/02/28 06:32:44;;;;;;;;;;;15.40;65.10;;;;;;5054029;28;20374;-72
2024/02/28 06:35:09;;;;;;;;;;;15.30;64.90;;;;;;5054078;28;19909;-71
2024/02/28 06:37:35;;;;;;;;;;;15.30;65.10;;;;;;5053868;28;19909;-70
2024/02/28 06:40:03;;;;;;;;;;;15.40;64.90;;;;;;5053983;28;19909;-70
2024/02/28 06:42:29;;;;;;;;;;;15.40;65.20;;;;;;5054270;28;19909;-70
2024/02/28 06:44:55;;;;;;;;;;;15.40;65.20;;;;;;5053760;28;19915;-70
2024/02/28 06:47:20;;;;;;;;;;;15.40;65.30;;;;;;5053631;28;19908;-70
2024/02/28 06:49:46;;;;;;;;;;;15.40;65.20;;;;;;5053472;28;19909;-70
2024/02/28 06:52:12;;;;;;;;;;;15.40;65.40;;;;;;5053752;28;19963;-70
2024/02/28 06:54:38;;;;;;;;;;;15.40;65.00;;;;;;5053796;28;20293;-70
2024/02/28 06:57:04;;;;;;;;;;;15.40;64.70;;;;;;5053252;28;20355;-70
2024/02/28 06:59:30;;;;;;;;;;;15.40;63.60;;;;;;5053539;28;20337;-70
2024/02/28 07:01:55;;;;;;;;;;;15.40;64.30;;;;;;5053219;28;19909;-71
2024/02/28 07:04:21;;;;;;;;;;;15.40;64.80;;;;;;5053197;28;20011;-70
2024/02/28 07:06:47;;;;;;;;;;;15.30;64.70;;;;;;5053457;28;19916;-70
2024/02/28 07:09:15;;;;;;;;;;;15.30;65.40;;;;;;5053536;28;19956;-70
2024/02/28 07:11:41;;;;;;;;;;;15.50;65.00;;;;;;5052558;28;19912;-71
2024/02/28 07:14:06;;;;;;;;;;;15.30;65.20;;;;;;5053299;28;20010;-70
2024/02/28 07:16:33;;;;;;;;;;;15.40;65.30;;;;;;5053034;28;19931;-71
2024/02/28 07:19:02;;;;;;;;;;;15.30;65.20;;;;;;5052997;28;19963;-70
2024/02/28 07:21:29;;;;;;;;;;;15.70;65.70;;;;;;5053009;28;19955;-70
2024/02/28 07:23:55;;;;;;;;;;;15.30;65.30;;;;;;5053185;28;19924;-70
2024/02/28 07:26:21;;;;;;;;;;;15.40;65.40;;;;;;5053249;28;19909;-70
2024/02/28 07:28:50;;;;;;;;;;;15.40;65.70;;;;;;5052807;28;20279;-70
2024/02/28 07:31:16;;;;;;;;;;;15.30;62.00;;;;;;5052842;28;19931;-70
2024/02/28 07:33:42;;;;;;;;;;;15.10;65.20;;;;;;5053078;28;19909;-70
2024/02/28 07:36:08;;;;;;;;;;;15.40;65.70;;;;;;5053092;28;19963;-70
2024/02/28 07:38:34;;;;;;;;;;;15.40;65.50;;;;;;5053460;28;19940;-70
2024/02/28 07:41:00;;;;;;;;;;;15.40;65.50;;;;;;5052868;28;19951;-70
2024/02/28 07:43:27;;;;;;;;;;;15.40;65.60;;;;;;5052475;28;19967;-71
2024/02/28 07:45:52;;;;;;;;;;;15.40;65.60;;;;;;5052833;28;19909;-70
2024/02/28 07:48:18;;;;;;;;;;;15.50;65.50;;;;;;5052895;28;19915;-70
2024/02/28 07:50:45;;;;;;;;;;;15.40;65.30;;;;;;5052826;28;19915;-70
2024/02/28 07:53:12;;;;;;;;;;;15.40;65.60;;;;;;5052452;28;19909;-70
2024/02/28 07:55:38;;;;;;;;;;;15.40;65.60;;;;;;5052381;28;19999;-70
2024/02/28 07:58:06;;;;;;;;;;;15.50;65.40;;;;;;5052611;28;19963;-70
2024/02/28 08:00:33;;;;;;;;;;;15.50;65.40;;;;;;5052506;28;20405;-70
2024/02/28 08:02:59;;;;;;;;;;;15.50;65.00;;;;;;5052073;28;19917;-77
2024/02/28 08:05:25;;;;;;;;;;;15.70;65.90;;;;;;5052537;28;19916;-72
2024/02/28 08:07:51;;;;;;;;;;;15.80;65.90;;;;;;5052667;28;19932;-74
2024/02/28 08:10:17;;;;;;;;;;;15.40;65.30;;;;;;5052469;28;20243;-70
2024/02/28 08:12:43;;;;;;;;;;;15.50;65.50;;;;;;5054981;28;19913;-69
2024/02/28 08:15:10;;;;;;;;;;;15.40;65.30;;;;;;5052557;28;20003;-71
2024/02/28 08:17:36;;;;;;;;;;;15.40;63.80;;;;;;5052235;28;19908;-70
2024/02/28 08:20:04;;;;;;;;;;;15.40;65.70;;;;;;5052484;28;19909;-85
2024/02/28 08:22:31;;;;;;;;;;;15.50;65.30;;;;;;5051317;28;19909;-72
2024/02/28 08:24:57;;;;;;;;;;;15.50;65.30;;;;;;5052445;28;20011;-71
2024/02/28 08:27:23;;;;;;;;;;;15.50;65.60;;;;;;5051998;28;19909;-70
2024/02/28 08:29:49;;;;;;;;;;;15.40;65.30;;;;;;5052294;28;19916;-71
2024/02/28 08:32:16;;;;;;;;;;;15.40;65.40;;;;;;5051966;28;19996;-72
2024/02/28 08:34:49;;;;;;;;;;;15.40;65.60;;;;;;5052704;28;19909;-73
2024/02/28 08:37:15;;;;;;;;;;;15.40;60.80;;;;;;5052139;28;19909;-70
2024/02/28 08:39:41;;;;;;;;;;;15.40;65.40;;;;;;5051944;28;20213;-71
2024/02/28 08:42:06;;;;;;;;;;;15.50;65.50;;;;;;5051868;28;19909;-71
2024/02/28 08:44:32;;;;;;;;;;;15.50;65.50;;;;;;5051919;28;20015;-71
2024/02/28 08:46:58;;;;;;;;;;;15.50;65.30;;;;;;5052089;28;20054;-70
2024/02/28 08:49:24;;;;;;;;;;;15.50;65.50;;;;;;5051857;28;20408;-71
2024/02/28 08:51:50;;;;;;;;;;;15.40;65.40;;;;;;5052082;28;19915;-74
2024/02/28 08:54:16;;;;;;;;;;;15.50;65.60;;;;;;5052018;28;20275;-71
2024/02/28 08:56:42;;;;;;;;;;;15.50;65.60;;;;;;5051746;28;20271;-71
2024/02/28 08:59:08;;;;;;;;;;;15.50;65.40;;;;;;5051895;28;19909;-70
2024/02/28 09:01:35;;;;;;;;;;;15.50;64.90;;;;;;5051917;28;19916;-71
2024/02/28 09:04:01;;;;;;;;;;;15.50;65.30;;;;;;5052378;28;19917;-71
2024/02/28 09:06:27;;;;;;;;;;;15.50;65.10;;;;;;5051836;28;19909;-71
2024/02/28 09:08:53;;;;;;;;;;;15.50;65.40;;;;;;5051301;28;20349;-71
2024/02/28 09:11:19;;;;;;;;;;;15.50;65.20;;;;;;5051774;28;19915;-71
2024/02/28 09:13:45;;;;;;;;;;;15.50;65.50;;;;;;5051574;28;20306;-78
2024/02/28 09:16:11;;;;;;;;;;;15.50;64.80;;;;;;5051680;28;20443;-72
2024/02/28 09:18:38;;;;;;;;;;;15.60;65.30;;;;;;5051644;28;19909;-72
2024/02/28 09:21:04;;;;;;;;;;;15.50;65.20;;;;;;5052575;28;19916;-72
2024/02/28 09:23:30;;;;;;;;;;;15.60;65.10;;;;;;5051670;28;20260;-72
2024/02/28 09:25:57;;;;;;;;;;;15.60;65.20;;;;;;5051848;28;19916;-72
2024/02/28 09:28:23;;;;;;;;;;;15.60;65.50;;;;;;5051344;28;19912;-72
2024/02/28 09:30:50;;;;;;;;;;;15.60;65.60;;;;;;5051307;28;19909;-72
2024/02/28 09:33:19;;;;;;;;;;;15.80;65.60;;;;;;5051895;28;20425;-75
2024/02/28 09:35:45;;;;;;;;;;;15.70;65.90;;;;;;5054932;28;19913;-73
2024/02/28 09:38:11;;;;;;;;;;;15.60;65.90;;;;;;5055169;28;19959;-74
2024/02/28 09:40:38;;;;;;;;;;;15.70;65.90;;;;;;5054852;28;19956;-73
2024/02/28 09:43:04;;;;;;;;;;;15.70;65.80;;;;;;5054711;28;19919;-75
2024/02/28 09:45:31;;;;;;;;;;;15.70;66.10;;;;;;5054967;28;19995;-76
2024/02/28 09:47:57;;;;;;;;;;;15.70;66.30;;;;;;5054686;28;19908;-76
2024/02/28 09:50:25;;;;;;;;;;;15.70;66.40;;;;;;5054934;28;19913;-76
2024/02/28 09:52:51;;;;;;;;;;;15.70;66.40;;;;;;5054647;28;20015;-76
2024/02/28 09:55:17;;;;;;;;;;;15.70;66.40;;;;;;5054605;28;19963;-75
2024/02/28 09:57:45;;;;;;;;;;;15.80;66.20;;;;;;5054581;28;19932;-75
2024/02/28 10:00:11;;;;;;;;;;;15.80;66.70;;;;;;5055288;28;19940;-72
2024/02/28 10:02:39;;;;;;;;;;;15.90;66.00;;;;;;5054329;28;20387;-74
2024/02/28 10:05:06;;;;;;;;;;;15.80;66.50;;;;;;5054596;28;19944;-75
2024/02/28 10:07:32;;;;;;;;;;;15.80;65.20;;;;;;5054258;28;19920;-75
2024/02/28 10:09:58;;;;;;;;;;;15.90;66.50;;;;;;5054627;28;19955;-75
2024/02/28 10:12:25;;;;;;;;;;;15.90;65.80;;;;;;5054237;28;20350;-75
2024/02/28 10:14:51;;;;;;;;;;;15.90;66.10;;;;;;5054583;28;19919;-75
2024/02/28 10:17:17;;;;;;;;;;;15.90;66.30;;;;;;5054192;28;19909;-76
2024/02/28 10:19:43;;;;;;;;;;;15.90;66.40;;;;;;5054115;28;19913;-75
2024/02/28 10:22:09;;;;;;;;;;;15.90;66.20;;;;;;5054356;28;19916;-75
2024/02/28 10:24:35;;;;;;;;;;;16.00;66.30;;;;;;5054277;28;19917;-75
2024/02/28 10:27:01;;;;;;;;;;;16.10;66.20;;;;;;5054113;28;19909;-75
2024/02/28 10:29:28;;;;;;;;;;;16.10;66.50;;;;;;5054461;28;20509;-75
2024/02/28 10:31:57;;;;;;;;;;;16.10;66.00;;;;;;5054093;28;19915;-75
2024/02/28 10:34:23;;;;;;;;;;;16.10;61.80;;;;;;5054069;28;20012;-74
2024/02/28 10:36:49;;;;;;;;;;;16.20;65.90;;;;;;5054101;28;19991;-75
2024/02/28 10:39:15;;;;;;;;;;;16.40;65.90;;;;;;5053750;28;19909;-75
2024/02/28 10:41:42;;;;;;;;;;;16.20;66.00;;;;;;5053955;28;19952;-75
2024/02/28 10:44:12;;;;;;;;;;;16.30;66.00;;;;;;5053480;28;19924;-70
2024/02/28 10:46:39;;;;;;;;;;;16.40;61.20;;;;;;5052709;28;19939;-70
2024/02/28 10:49:05;;;;;;;;;;;16.50;65.60;;;;;;5053479;28;19909;-70
2024/02/28 10:51:34;;;;;;;;;;;16.40;65.70;;;;;;5053694;28;19909;-71
2024/02/28 10:54:13;;;;;;;;;;;16.50;65.70;;;;;;5053748;28;20058;-73
2024/02/28 10:56:55;;;;;;;;;;;16.50;60.80;;;;;;5052070;28;19916;-71
2024/02/28 10:59:23;;;;;;;;;;;16.60;65.20;;;;;;5053854;28;19909;-70
2024/02/28 11:01:49;;;;;;;;;;;16.70;64.80;;;;;;5053478;28;20286;-70
2024/02/28 11:04:16;;;;;;;;;;;16.80;65.10;;;;;;5053459;28;19917;-71
2024/02/28 11:06:51;;;;;;;;;;;16.70;65.40;;;;;;5053774;28;20266;-71
2024/02/28 11:09:25;;;;;;;;;;;16.90;60.90;;;;;;5053535;28;19921;-71
2024/02/28 11:11:52;;;;;;;;;;;16.90;60.70;;;;;;5053123;28;20021;-71
2024/02/28 11:14:22;;;;;;;;;;;16.80;65.10;;;;;;5053078;28;19909;-71
2024/02/28 11:16:48;;;;;;;;;;;16.80;65.00;;;;;;5053249;28;19909;-71
2024/02/28 11:19:23;;;;;;;;;;;16.80;65.00;;;;;;5052884;28;19944;-71
2024/02/28 11:21:54;;;;;;;;;;;16.90;60.50;;;;;;5053173;28;20004;-72
2024/02/28 11:24:24;;;;;;;;;;;16.90;60.70;;;;;;5053336;28;19917;-70
2024/02/28 11:26:51;;;;;;;;;;;16.90;65.30;;;;;;5053763;28;19908;-71
2024/02/28 11:29:21;;;;;;;;;;;16.90;65.80;;;;;;5053186;28;19935;-70
2024/02/28 11:31:47;;;;;;;;;;;16.90;65.70;;;;;;5052787;28;20391;-71
2024/02/28 11:34:13;;;;;;;;;;;17.00;65.90;;;;;;5053025;28;19948;-70
2024/02/28 11:36:40;;;;;;;;;;;16.80;65.80;;;;;;5052675;28;19996;-70
2024/02/28 11:39:06;;;;;;;;;;;17.10;66.50;;;;;;5053062;28;19909;-71
2024/02/28 11:41:32;;;;;;;;;;;16.70;66.20;;;;;;5052929;28;19916;-71
2024/02/28 11:43:58;;;;;;;;;;;16.70;66.10;;;;;;5052703;28;19916;-71
2024/02/28 11:46:24;;;;;;;;;;;16.70;66.50;;;;;;5052828;28;19909;-70
2024/02/28 11:48:50;;;;;;;;;;;16.70;66.30;;;;;;5052727;28;19909;-70
2024/02/28 11:51:16;;;;;;;;;;;16.70;66.20;;;;;;5052847;28;20322;-70
2024/02/28 11:53:42;;;;;;;;;;;16.70;66.40;;;;;;5052696;28;20317;-71
2024/02/28 11:56:08;;;;;;;;;;;16.70;66.20;;;;;;5053185;28;19909;-70
2024/02/28 11:58:34;;;;;;;;;;;16.70;66.50;;;;;;5052625;28;20010;-71
2024/02/28 12:01:00;;;;;;;;;;;16.80;66.40;;;;;;5052329;28;19916;-71
2024/02/28 12:03:27;;;;;;;;;;;16.80;66.20;;;;;;5052152;28;19917;-71
2024/02/28 12:05:53;;;;;;;;;;;16.70;66.40;;;;;;5052254;28;19998;-71
2024/02/28 12:08:19;;;;;;;;;;;16.70;66.70;;;;;;5052363;28;20282;-71
2024/02/28 12:10:46;;;;;;;;;;;16.70;67.20;;;;;;5052432;28;19917;-71
2024/02/28 12:13:15;;;;;;;;;;;16.70;66.60;;;;;;5052258;28;19955;-71
2024/02/28 12:15:41;;;;;;;;;;;16.80;66.90;;;;;;5052036;28;19909;-71
2024/02/28 12:18:09;;;;;;;;;;;16.80;66.40;;;;;;5052251;28;19909;-71
2024/02/28 12:20:34;;;;;;;;;;;16.70;66.50;;;;;;5051987;28;19963;-71
2024/02/28 12:23:00;;;;;;;;;;;16.50;66.20;;;;;;5052684;28;19917;-71
2024/02/28 12:25:26;;;;;;;;;;;16.70;66.80;;;;;;5052378;28;19932;-71
2024/02/28 12:27:52;;;;;;;;;;;16.80;66.70;;;;;;5052384;28;19908;-71
2024/02/28 12:30:18;;;;;;;;;;;16.80;67.00;;;;;;5052038;28;19931;-71
2024/02/28 12:32:44;;;;;;;;;;;16.70;66.90;;;;;;5052274;28;19916;-71
2024/02/28 12:35:10;;;;;;;;;;;16.70;66.80;;;;;;5052010;28;19908;-71
2024/02/28 12:37:36;;;;;;;;;;;16.70;66.90;;;;;;5051882;28;19909;-71
2024/02/28 12:40:04;;;;;;;;;;;16.70;66.90;;;;;;5051886;28;19908;-71
2024/02/28 12:42:30;;;;;;;;;;;16.70;66.40;;;;;;5051953;28;19909;-71
2024/02/28 12:44:56;;;;;;;;;;;16.70;66.90;;;;;;5052011;28;19913;-71
2024/02/28 12:47:22;;;;;;;;;;;16.70;66.60;;;;;;5051795;28;19932;-71
2024/02/28 12:49:48;;;;;;;;;;;16.70;66.80;;;;;;5052020;28;19948;-70
2024/02/28 12:52:14;;;;;;;;;;;16.70;66.70;;;;;;5052208;28;20282;-74
2024/02/28 12:54:40;;;;;;;;;;;16.70;66.80;;;;;;5051997;28;20309;-74
2024/02/28 12:57:08;;;;;;;;;;;16.80;66.70;;;;;;5051693;28;19913;-74
2024/02/28 12:59:34;;;;;;;;;;;16.70;66.50;;;;;;5051998;28;19909;-74
2024/02/28 13:02:00;;;;;;;;;;;16.80;66.40;;;;;;5051860;28;19915;-74
2024/02/28 13:04:28;;;;;;;;;;;16.70;66.60;;;;;;5051961;28;20347;-74
2024/02/28 13:06:54;;;;;;;;;;;16.70;66.80;;;;;;5051683;28;19955;-74
2024/02/28 13:09:22;;;;;;;;;;;16.70;66.80;;;;;;5053257;28;19948;-74
2024/02/28 13:11:48;;;;;;;;;;;16.70;66.50;;;;;;5055407;28;19915;-74
2024/02/28 13:14:14;;;;;;;;;;;17.10;66.80;;;;;;5055658;28;19909;-74
2024/02/28 13:16:40;;;;;;;;;;;16.70;66.40;;;;;;5055645;28;19916;-74
2024/02/28 13:19:05;;;;;;;;;;;16.70;66.50;;;;;;5055467;28;20054;-74
2024/02/28 13:21:32;;;;;;;;;;;16.70;66.40;;;;;;5056028;28;20333;-74
2024/02/28 13:23:58;;;;;;;;;;;16.80;66.60;;;;;;5055343;28;20274;-74
2024/02/28 13:26:24;;;;;;;;;;;16.80;66.40;;;;;;5055241;28;19908;-74
2024/02/28 13:28:49;;;;;;;;;;;16.70;66.60;;;;;;5055263;28;19909;-74
2024/02/28 13:31:16;;;;;;;;;;;16.70;66.50;;;;;;5055005;28;19909;-74
2024/02/28 13:33:41;;;;;;;;;;;17.10;66.10;;;;;;5055102;28;19909;-75
2024/02/28 13:36:07;;;;;;;;;;;16.70;66.50;;;;;;5054997;28;19935;-72
2024/02/28 13:38:32;;;;;;;;;;;16.70;66.20;;;;;;5054899;28;20044;-72
2024/02/28 13:40:59;;;;;;;;;;;16.70;66.50;;;;;;5054920;28;19931;-73
2024/02/28 13:43:25;;;;;;;;;;;16.60;66.20;;;;;;5054652;28;19916;-72
2024/02/28 13:45:51;;;;;;;;;;;16.70;66.50;;;;;;5055153;28;20012;-71
2024/02/28 13:48:17;;;;;;;;;;;16.70;66.40;;;;;;5055520;28;19924;-72
2024/02/28 13:50:43;;;;;;;;;;;15.70;65.80;;;;;;5054789;28;20313;-72
2024/02/28 13:53:09;;;;;;;;;;;16.80;66.80;;;;;;5054704;28;20034;-72
2024/02/28 13:55:35;;;;;;;;;;;16.70;66.10;;;;;;5054653;28;19909;-71
2024/02/28 13:58:01;;;;;;;;;;;17.00;66.40;;;;;;5054654;28;20047;-72
2024/02/28 14:00:27;;;;;;;;;;;16.70;66.20;;;;;;5054910;28;19951;-71
2024/02/28 14:02:53;;;;;;;;;;;16.50;65.70;;;;;;5054743;28;20437;-72
2024/02/28 14:05:19;;;;;;;;;;;16.80;66.50;;;;;;5054356;28;20007;-72
2024/02/28 14:07:45;;;;;;;;;;;16.70;66.00;;;;;;5054234;28;19969;-72
2024/02/28 14:10:11;;;;;;;;;;;16.70;66.20;;;;;;5054305;28;20279;-74